Time;durP1;ratioP1;P1;durP2;ratioP2;P2;SDS_P1;SDS_P2;PMS_P1;PMS_P2;Temp;Humidity;BMP_temperature;BMP_pressure;BME280_temperature;BME280_humidity;BME280_pressure;Samples;Min_cycle;Max_cycle;Signal;HPM_P1;HPM_P2
2021/12/17 00:05:09;;;;;;;11.97;8.80;;;;;;;;;;5140623;27;20205;-90
2021/12/17 00:07:37;;;;;;;12.60;7.53;;;;;;;;;;5138256;27;20203;-89
2021/12/17 00:10:06;;;;;;;16.53;8.73;;;;;;;;;;5153663;27;20198;-89
2021/12/17 00:12:33;;;;;;;13.60;8.50;;;;;;;;;;5152112;27;20202;-90
2021/12/17 00:15:01;;;;;;;11.47;7.37;;;;;;;;;;5147043;27;20724;-90
2021/12/17 00:17:33;;;;;;;15.40;8.00;;;;;;;;;;5151669;27;20202;-89
2021/12/17 00:50:39;;;;;;;16.63;9.90;;;;;;;;;;5148840;27;20218;-89
2021/12/17 00:53:07;;;;;;;15.73;8.37;;;;;;;;;;5144777;27;21146;-89
2021/12/17 00:55:36;;;;;;;15.33;8.63;;;;;;;;;;5157009;27;20353;-89
2021/12/17 00:58:03;;;;;;;15.47;9.33;;;;;;;;;;5157013;27;20206;-89
2021/12/17 01:00:30;;;;;;;14.03;8.93;;;;;;;;;;5151973;27;20610;-90
2021/12/17 01:02:58;;;;;;;12.70;9.10;;;;;;;;;;5151544;27;20206;-89
2021/12/17 01:05:27;;;;;;;11.77;7.97;;;;;;;;;;5157192;27;20273;-89
2021/12/17 01:07:56;;;;;;;15.33;9.77;;;;;;;;;;5154456;27;20575;-89
2021/12/17 01:10:26;;;;;;;15.77;9.03;;;;;;;;;;5147927;27;20597;-89
2021/12/17 01:12:55;;;;;;;14.03;8.23;;;;;;;;;;5153368;27;20622;-89
2021/12/17 01:15:23;;;;;;;16.50;8.53;;;;;;;;;;5157225;27;20213;-89
2021/12/17 01:17:53;;;;;;;14.70;9.07;;;;;;;;;;5141867;27;20224;-89
2021/12/17 01:20:33;;;;;;;12.20;9.07;;;;;;;;;;5150414;27;20643;-90
2021/12/17 01:23:31;;;;;;;12.93;8.63;;;;;;;;;;5141831;27;20722;-89
2021/12/17 01:37:13;;;;;;;14.27;8.13;;;;;;;;;;5141531;27;20332;-90
2021/12/17 01:42:31;;;;;;;12.63;8.10;;;;;;;;;;5114977;27;20207;-89
2021/12/17 01:45:00;;;;;;;13.00;7.97;;;;;;;;;;5151789;27;20665;-90
2021/12/17 01:47:27;;;;;;;11.70;7.83;;;;;;;;;;5153745;27;20195;-89
2021/12/17 02:00:55;;;;;;;14.33;9.47;;;;;;;;;;5150647;27;20354;-89
2021/12/17 02:03:23;;;;;;;11.63;7.83;;;;;;;;;;5145376;27;20205;-90
2021/12/17 02:05:50;;;;;;;12.40;7.57;;;;;;;;;;5155872;27;20213;-89
2021/12/17 02:08:18;;;;;;;14.50;8.70;;;;;;;;;;5155999;27;20213;-89
2021/12/17 02:30:56;;;;;;;12.73;8.50;;;;;;;;;;5122550;27;20222;-90
2021/12/17 02:33:23;;;;;;;11.43;7.17;;;;;;;;;;5138818;27;20231;-89
2021/12/17 02:35:51;;;;;;;13.43;8.97;;;;;;;;;;5142014;27;20255;-90
2021/12/17 02:38:19;;;;;;;13.00;9.30;;;;;;;;;;5157653;27;20202;-90
2021/12/17 02:46:16;;;;;;;13.03;9.53;;;;;;;;;;5151116;27;20259;-89
2021/12/17 02:48:43;;;;;;;13.27;8.00;;;;;;;;;;5148299;27;20219;-89
2021/12/17 02:51:11;;;;;;;14.37;8.20;;;;;;;;;;5145533;27;20245;-89
2021/12/17 02:53:39;;;;;;;11.73;8.83;;;;;;;;;;5155985;27;20981;-90
2021/12/17 02:56:08;;;;;;;11.27;8.03;;;;;;;;;;5156440;27;20458;-89
2021/12/17 02:58:36;;;;;;;13.13;8.70;;;;;;;;;;5159588;27;20730;-90
2021/12/17 03:01:06;;;;;;;13.00;7.07;;;;;;;;;;5164047;27;20219;-90
2021/12/17 03:03:34;;;;;;;10.80;7.47;;;;;;;;;;5159067;27;20197;-90
2021/12/17 03:06:02;;;;;;;13.77;7.80;;;;;;;;;;5165606;27;20294;-90
2021/12/17 03:08:30;;;;;;;12.17;8.23;;;;;;;;;;5138375;27;20204;-89
2021/12/17 03:10:59;;;;;;;13.70;8.57;;;;;;;;;;5147722;27;20749;-89
2021/12/17 03:13:28;;;;;;;13.60;7.77;;;;;;;;;;5159193;27;20214;-89
2021/12/17 03:15:59;;;;;;;13.43;8.53;;;;;;;;;;5157137;27;20643;-89
2021/12/17 03:24:22;;;;;;;16.53;8.87;;;;;;;;;;5150980;27;20253;-90
2021/12/17 03:26:50;;;;;;;13.40;8.90;;;;;;;;;;5158611;27;20286;-90
2021/12/17 03:29:18;;;;;;;12.67;8.03;;;;;;;;;;5147558;27;20643;-89
2021/12/17 03:31:46;;;;;;;12.50;8.57;;;;;;;;;;5152012;27;20215;-89
2021/12/17 03:34:21;;;;;;;11.80;8.10;;;;;;;;;;5150033;27;20310;-89
2021/12/17 03:36:53;;;;;;;16.37;8.93;;;;;;;;;;5154299;27;20292;-90
2021/12/17 03:39:21;;;;;;;15.53;8.40;;;;;;;;;;5141988;27;20213;-89
2021/12/17 03:41:51;;;;;;;15.07;8.33;;;;;;;;;;5154507;27;20230;-90
2021/12/17 03:44:20;;;;;;;13.17;8.07;;;;;;;;;;5158235;27;20199;-90
2021/12/17 03:46:47;;;;;;;12.97;8.87;;;;;;;;;;5158109;27;20258;-89
2021/12/17 03:49:15;;;;;;;15.20;8.90;;;;;;;;;;5141161;27;20203;-89
2021/12/17 03:51:52;;;;;;;14.47;8.00;;;;;;;;;;5160144;27;20243;-90
2021/12/17 03:54:20;;;;;;;13.67;8.00;;;;;;;;;;5156004;27;20250;-90
2021/12/17 03:56:47;;;;;;;11.00;7.70;;;;;;;;;;5158377;27;20658;-89
2021/12/17 03:59:15;;;;;;;14.10;8.57;;;;;;;;;;5141853;27;20211;-89
2021/12/17 04:01:44;;;;;;;14.03;8.57;;;;;;;;;;5158031;27;20690;-89
2021/12/17 04:04:11;;;;;;;14.73;7.83;;;;;;;;;;5158178;27;20195;-89
2021/12/17 04:06:39;;;;;;;13.80;8.20;;;;;;;;;;5144263;27;20207;-90
2021/12/17 04:09:08;;;;;;;11.67;7.83;;;;;;;;;;5147519;27;20203;-89
2021/12/17 04:11:35;;;;;;;12.63;7.63;;;;;;;;;;5157802;27;20261;-90
2021/12/17 04:14:03;;;;;;;13.87;8.93;;;;;;;;;;5137852;27;20219;-89
2021/12/17 04:16:32;;;;;;;11.93;7.80;;;;;;;;;;5147845;27;20248;-89
2021/12/17 04:19:01;;;;;;;12.57;8.37;;;;;;;;;;5155132;27;20204;-90
2021/12/17 04:21:29;;;;;;;13.93;7.97;;;;;;;;;;5157692;27;20298;-89
2021/12/17 04:23:56;;;;;;;11.67;8.17;;;;;;;;;;5144794;27;20203;-90
2021/12/17 04:26:25;;;;;;;12.00;8.20;;;;;;;;;;5155625;27;20210;-89
2021/12/17 04:28:53;;;;;;;12.00;8.67;;;;;;;;;;5153315;27;20271;-90
2021/12/17 04:31:23;;;;;;;14.80;8.67;;;;;;;;;;5156586;27;20699;-90
2021/12/17 04:33:50;;;;;;;12.47;8.57;;;;;;;;;;5150982;27;20317;-90
2021/12/17 04:36:24;;;;;;;13.77;8.10;;;;;;;;;;5157473;27;20202;-90
2021/12/17 04:38:51;;;;;;;13.50;8.40;;;;;;;;;;5141694;27;20603;-89
2021/12/17 04:41:44;;;;;;;12.83;8.33;;;;;;;;;;5149800;27;20226;-89
2021/12/17 04:44:16;;;;;;;10.57;7.30;;;;;;;;;;5156459;27;20247;-90
2021/12/17 04:46:48;;;;;;;13.03;8.57;;;;;;;;;;5157484;27;20226;-90
2021/12/17 04:57:48;;;;;;;13.70;8.80;;;;;;;;;;5131050;27;20213;-90
2021/12/17 05:00:18;;;;;;;11.50;7.60;;;;;;;;;;5143309;27;20207;-90
2021/12/17 05:02:48;;;;;;;16.63;8.77;;;;;;;;;;5148060;27;20198;-90
2021/12/17 05:05:16;;;;;;;12.47;7.43;;;;;;;;;;5147814;27;20190;-92
2021/12/17 05:07:50;;;;;;;12.23;8.03;;;;;;;;;;5155329;27;20203;-91
2021/12/17 05:10:25;;;;;;;12.90;8.60;;;;;;;;;;5140634;27;20199;-91
2021/12/17 05:18:50;;;;;;;10.03;7.17;;;;;;;;;;5141500;27;20204;-90
2021/12/17 05:21:18;;;;;;;10.90;7.27;;;;;;;;;;5148465;27;20226;-91
2021/12/17 05:23:47;;;;;;;12.17;7.80;;;;;;;;;;5149297;27;20201;-91
2021/12/17 05:26:15;;;;;;;14.57;8.63;;;;;;;;;;5154882;27;20207;-90
2021/12/17 05:28:42;;;;;;;13.03;8.43;;;;;;;;;;5142641;27;20652;-91
2021/12/17 05:31:09;;;;;;;12.30;8.20;;;;;;;;;;5145217;27;20222;-90
2021/12/17 05:33:37;;;;;;;15.40;7.87;;;;;;;;;;5142521;27;20258;-90
2021/12/17 05:36:05;;;;;;;9.37;6.30;;;;;;;;;;5152660;27;20718;-89
2021/12/17 05:38:32;;;;;;;12.87;7.87;;;;;;;;;;5139664;27;20290;-92
2021/12/17 05:41:01;;;;;;;13.60;8.70;;;;;;;;;;5152809;27;20222;-91
2021/12/17 05:43:28;;;;;;;12.37;8.03;;;;;;;;;;5155208;27;20207;-91
2021/12/17 05:46:08;;;;;;;16.97;9.03;;;;;;;;;;5152024;27;20238;-90
2021/12/17 05:48:48;;;;;;;15.43;8.33;;;;;;;;;;5147536;27;20207;-91
2021/12/17 05:51:15;;;;;;;12.83;7.97;;;;;;;;;;5154903;27;20240;-91
2021/12/17 05:53:43;;;;;;;9.27;6.83;;;;;;;;;;5152376;27;20198;-91
2021/12/17 05:56:11;;;;;;;11.97;7.77;;;;;;;;;;5138525;27;20202;-91
2021/12/17 05:58:39;;;;;;;13.27;8.07;;;;;;;;;;5154555;27;20271;-90
2021/12/17 06:01:06;;;;;;;16.13;10.07;;;;;;;;;;5149465;27;20329;-89
2021/12/17 06:03:34;;;;;;;13.77;8.53;;;;;;;;;;5142353;27;20217;-90
2021/12/17 06:06:01;;;;;;;12.50;7.83;;;;;;;;;;5145137;27;20720;-90
2021/12/17 06:08:31;;;;;;;16.57;10.13;;;;;;;;;;5146169;27;20215;-90
2021/12/17 06:10:59;;;;;;;13.57;9.43;;;;;;;;;;5135841;27;20230;-90
2021/12/17 06:13:28;;;;;;;14.73;8.00;;;;;;;;;;5150835;27;20573;-90
2021/12/17 06:15:55;;;;;;;15.30;7.77;;;;;;;;;;5154042;27;20267;-91
2021/12/17 06:18:25;;;;;;;11.53;7.53;;;;;;;;;;5157839;27;20606;-90
2021/12/17 06:20:53;;;;;;;11.17;7.33;;;;;;;;;;5150430;27;20680;-90
2021/12/17 06:23:20;;;;;;;11.17;7.87;;;;;;;;;;5153512;27;20206;-90
2021/12/17 06:25:47;;;;;;;10.87;7.67;;;;;;;;;;5155166;27;20743;-90
2021/12/17 06:28:16;;;;;;;11.43;7.00;;;;;;;;;;5160479;27;20197;-90
2021/12/17 06:30:45;;;;;;;9.87;6.77;;;;;;;;;;5174962;27;20272;-91
2021/12/17 06:33:12;;;;;;;10.97;7.30;;;;;;;;;;5154807;27;20251;-92
2021/12/17 06:35:39;;;;;;;12.37;7.30;;;;;;;;;;5154750;27;20226;-91
2021/12/17 06:38:07;;;;;;;9.93;6.80;;;;;;;;;;5154801;27;20259;-92
2021/12/17 06:40:34;;;;;;;10.33;6.87;;;;;;;;;;5144795;27;20223;-93
2021/12/17 06:43:02;;;;;;;10.23;7.10;;;;;;;;;;5145964;27;20210;-91
2021/12/17 06:45:52;;;;;;;12.40;7.73;;;;;;;;;;5154772;27;20202;-91
2021/12/17 06:48:25;;;;;;;13.00;7.67;;;;;;;;;;5149881;27;20198;-92
2021/12/17 06:59:22;;;;;;;9.13;5.90;;;;;;;;;;5153466;27;20221;-90
2021/12/17 07:10:17;;;;;;;14.27;9.50;;;;;;;;;;5150215;27;20195;-93
2021/12/17 07:21:33;;;;;;;10.70;6.70;;;;;;;;;;5113064;27;20219;-92
2021/12/17 07:32:33;;;;;;;9.97;6.17;;;;;;;;;;5158405;27;20239;-93
2021/12/17 07:35:25;;;;;;;7.63;5.70;;;;;;;;;;5147969;27;20256;-93
2021/12/17 07:40:39;;;;;;;8.67;6.23;;;;;;;;;;5158086;27;20229;-92
2021/12/17 07:43:13;;;;;;;11.33;6.70;;;;;;;;;;5143090;27;20218;-91
2021/12/17 07:45:41;;;;;;;7.67;6.00;;;;;;;;;;5157890;27;20191;-93
2021/12/17 07:48:08;;;;;;;18.83;9.93;;;;;;;;;;5157563;27;20605;-93
2021/12/17 07:50:35;;;;;;;11.80;5.73;;;;;;;;;;5153490;27;20230;-93
2021/12/17 07:53:04;;;;;;;12.27;7.13;;;;;;;;;;5151929;27;20270;-93
2021/12/17 07:55:32;;;;;;;7.27;5.30;;;;;;;;;;5157568;27;20222;-93
2021/12/17 07:57:59;;;;;;;7.83;5.13;;;;;;;;;;5157474;27;20210;-93
2021/12/17 08:00:26;;;;;;;7.83;5.37;;;;;;;;;;5145379;27;20275;-93
2021/12/17 08:02:54;;;;;;;8.03;4.93;;;;;;;;;;5146958;27;20198;-93
2021/12/17 08:05:21;;;;;;;8.80;6.10;;;;;;;;;;5152447;27;20258;-93
2021/12/17 08:07:48;;;;;;;7.30;5.50;;;;;;;;;;5148028;27;20199;-92
2021/12/17 08:10:17;;;;;;;6.67;5.50;;;;;;;;;;5146250;27;20212;-91
2021/12/17 08:12:44;;;;;;;6.67;5.57;;;;;;;;;;5158971;27;20202;-93
2021/12/17 08:15:13;;;;;;;8.63;6.70;;;;;;;;;;5158518;27;20214;-91
2021/12/17 08:18:04;;;;;;;17.43;9.90;;;;;;;;;;5154330;27;20227;-92
2021/12/17 08:26:17;;;;;;;9.23;6.47;;;;;;;;;;5127516;27;20203;-93
2021/12/17 08:28:54;;;;;;;7.17;6.23;;;;;;;;;;5143740;27;20224;-91
2021/12/17 08:31:22;;;;;;;7.17;5.77;;;;;;;;;;5153006;27;20215;-93
2021/12/17 08:33:49;;;;;;;9.43;6.30;;;;;;;;;;5154344;27;20210;-92
2021/12/17 08:36:16;;;;;;;8.93;5.77;;;;;;;;;;5146198;27;20230;-93
2021/12/17 08:38:44;;;;;;;7.37;5.53;;;;;;;;;;5152207;27;20199;-93
2021/12/17 08:41:13;;;;;;;5.47;4.70;;;;;;;;;;5158498;27;20222;-91
2021/12/17 08:43:42;;;;;;;7.40;5.07;;;;;;;;;;5158055;27;20598;-92
2021/12/17 08:46:09;;;;;;;6.63;5.17;;;;;;;;;;5148603;27;20252;-92
2021/12/17 08:48:36;;;;;;;5.37;4.80;;;;;;;;;;5152759;27;20206;-91
2021/12/17 08:51:06;;;;;;;6.80;5.40;;;;;;;;;;5145579;27;20242;-92
2021/12/17 08:53:34;;;;;;;6.20;5.30;;;;;;;;;;5148958;27;20194;-92
2021/12/17 08:56:01;;;;;;;6.83;5.10;;;;;;;;;;5151766;27;20218;-92
2021/12/17 08:58:30;;;;;;;6.57;5.40;;;;;;;;;;5147611;27;20211;-91
2021/12/17 09:00:57;;;;;;;5.60;5.00;;;;;;;;;;5153408;27;20215;-91
2021/12/17 09:03:25;;;;;;;6.03;5.23;;;;;;;;;;5143275;27;20725;-92
2021/12/17 09:05:52;;;;;;;6.80;5.47;;;;;;;;;;5148834;27;20251;-91
2021/12/17 09:08:21;;;;;;;7.13;5.60;;;;;;;;;;5151652;27;20199;-92
2021/12/17 09:10:51;;;;;;;6.17;5.27;;;;;;;;;;5139165;27;20227;-92
2021/12/17 09:13:18;;;;;;;6.00;4.77;;;;;;;;;;5151127;27;20576;-89
2021/12/17 09:15:47;;;;;;;5.90;4.83;;;;;;;;;;5145571;27;20219;-92
2021/12/17 09:18:14;;;;;;;8.20;5.50;;;;;;;;;;5137066;27;20208;-91
2021/12/17 09:20:43;;;;;;;6.07;4.93;;;;;;;;;;5142854;27;20222;-90
2021/12/17 09:23:10;;;;;;;7.80;5.70;;;;;;;;;;5152198;27;20201;-90
2021/12/17 09:25:38;;;;;;;6.20;5.37;;;;;;;;;;5147394;27;20198;-90
2021/12/17 09:28:05;;;;;;;7.60;5.90;;;;;;;;;;5149215;27;20605;-91
2021/12/17 09:30:33;;;;;;;6.17;5.00;;;;;;;;;;5148004;27;20210;-91
2021/12/17 09:33:02;;;;;;;6.77;5.43;;;;;;;;;;5151792;27;20590;-92
2021/12/17 09:35:32;;;;;;;5.97;5.20;;;;;;;;;;5150669;27;20210;-91
2021/12/17 09:37:59;;;;;;;6.53;5.23;;;;;;;;;;5158265;27;20209;-90
2021/12/17 09:40:27;;;;;;;7.60;5.70;;;;;;;;;;5148908;27;20299;-91
2021/12/17 09:42:54;;;;;;;6.33;5.13;;;;;;;;;;5149406;27;20196;-88
2021/12/17 09:45:22;;;;;;;5.00;4.50;;;;;;;;;;5142681;27;20579;-91
2021/12/17 09:47:49;;;;;;;5.37;4.40;;;;;;;;;;5154789;27;20203;-92
2021/12/17 09:50:19;;;;;;;4.60;3.53;;;;;;;;;;5166309;27;20274;-91
2021/12/17 09:52:47;;;;;;;4.83;4.00;;;;;;;;;;5162664;27;20207;-90
2021/12/17 09:55:14;;;;;;;5.03;3.93;;;;;;;;;;5157028;27;20210;-92
2021/12/17 09:57:42;;;;;;;5.87;4.87;;;;;;;;;;5166118;27;20211;-92
2021/12/17 10:00:11;;;;;;;8.57;5.40;;;;;;;;;;5162088;27;20213;-92
2021/12/17 10:02:38;;;;;;;5.20;4.30;;;;;;;;;;5150046;27;20298;-90
2021/12/17 10:05:06;;;;;;;7.10;5.47;;;;;;;;;;5153667;27;20203;-90
2021/12/17 10:07:44;;;;;;;5.47;4.63;;;;;;;;;;5153891;27;20199;-90
2021/12/17 10:10:12;;;;;;;7.53;4.87;;;;;;;;;;5165821;27;20228;-90
2021/12/17 10:12:42;;;;;;;5.93;5.10;;;;;;;;;;5158719;27;20204;-91
2021/12/17 10:15:10;;;;;;;5.30;4.30;;;;;;;;;;5169307;27;20262;-91
2021/12/17 10:17:38;;;;;;;5.33;4.07;;;;;;;;;;5166957;27;20222;-91
2021/12/17 10:20:07;;;;;;;5.23;4.17;;;;;;;;;;5157816;27;20202;-90
2021/12/17 10:22:36;;;;;;;4.60;3.83;;;;;;;;;;5149801;27;20238;-90
2021/12/17 10:25:05;;;;;;;5.80;4.10;;;;;;;;;;5152705;27;20198;-91
2021/12/17 10:27:33;;;;;;;6.10;4.50;;;;;;;;;;5156414;27;20202;-92
2021/12/17 10:30:09;;;;;;;6.57;4.40;;;;;;;;;;5161526;27;20232;-90
2021/12/17 10:32:36;;;;;;;6.73;4.00;;;;;;;;;;5160720;27;20201;-92
2021/12/17 10:35:05;;;;;;;5.67;4.23;;;;;;;;;;5162267;27;20202;-92
2021/12/17 10:37:33;;;;;;;5.17;4.50;;;;;;;;;;5148335;27;20260;-91
2021/12/17 10:40:02;;;;;;;5.50;4.13;;;;;;;;;;5157835;27;20230;-92
2021/12/17 10:42:36;;;;;;;6.00;4.00;;;;;;;;;;5157201;27;20209;-92
2021/12/17 10:45:11;;;;;;;5.83;4.27;;;;;;;;;;5162491;27;20219;-92
2021/12/17 10:47:46;;;;;;;5.57;4.20;;;;;;;;;;5163830;27;20661;-92
2021/12/17 10:50:13;;;;;;;5.63;4.53;;;;;;;;;;5164966;27;20239;-92
2021/12/17 10:52:45;;;;;;;6.67;3.77;;;;;;;;;;5162678;27;20231;-91
2021/12/17 10:55:16;;;;;;;6.67;4.47;;;;;;;;;;5160367;27;20191;-91
2021/12/17 10:57:44;;;;;;;5.83;4.60;;;;;;;;;;5152102;27;20199;-90
2021/12/17 11:00:14;;;;;;;7.07;5.07;;;;;;;;;;5156750;27;20218;-92
2021/12/17 11:02:48;;;;;;;6.57;4.13;;;;;;;;;;5153380;27;20198;-90
2021/12/17 11:05:15;;;;;;;5.33;4.03;;;;;;;;;;5161320;27;20210;-91
2021/12/17 11:07:46;;;;;;;5.47;3.97;;;;;;;;;;5160436;27;20199;-92
2021/12/17 11:10:16;;;;;;;6.17;4.40;;;;;;;;;;5161175;27;20225;-90
2021/12/17 11:12:44;;;;;;;6.33;5.03;;;;;;;;;;5166775;27;20232;-93
2021/12/17 11:15:19;;;;;;;5.23;4.30;;;;;;;;;;5151244;27;20210;-91
2021/12/17 11:17:47;;;;;;;5.53;4.43;;;;;;;;;;5136864;27;20202;-89
2021/12/17 11:20:16;;;;;;;5.57;4.20;;;;;;;;;;5137489;27;20215;-91
2021/12/17 11:22:45;;;;;;;4.60;3.93;;;;;;;;;;5157589;27;20197;-91
2021/12/17 11:25:13;;;;;;;5.27;4.67;;;;;;;;;;5158838;27;20264;-92
2021/12/17 11:27:42;;;;;;;6.87;4.20;;;;;;;;;;5156652;27;20199;-92
2021/12/17 11:30:10;;;;;;;5.20;4.00;;;;;;;;;;5166075;27;20190;-92
2021/12/17 11:32:37;;;;;;;4.53;3.57;;;;;;;;;;5161368;27;20202;-93
2021/12/17 11:35:05;;;;;;;5.57;3.97;;;;;;;;;;5165193;27;20282;-92
2021/12/17 11:37:33;;;;;;;4.90;4.27;;;;;;;;;;5161665;27;20223;-92
2021/12/17 11:40:02;;;;;;;5.37;4.30;;;;;;;;;;5152889;27;20226;-91
2021/12/17 11:42:44;;;;;;;5.27;3.90;;;;;;;;;;5151862;27;20211;-91
2021/12/17 11:45:26;;;;;;;5.60;3.67;;;;;;;;;;5166450;27;20264;-93
2021/12/17 11:47:54;;;;;;;5.93;4.83;;;;;;;;;;5167099;27;20213;-91
2021/12/17 11:50:22;;;;;;;4.83;3.90;;;;;;;;;;5165680;27;20256;-90
2021/12/17 11:52:50;;;;;;;6.27;4.40;;;;;;;;;;5164722;27;20209;-92
2021/12/17 11:55:24;;;;;;;5.07;3.83;;;;;;;;;;5166559;27;20203;-91
2021/12/17 11:57:53;;;;;;;5.67;4.10;;;;;;;;;;5156478;27;20229;-90
2021/12/17 12:00:25;;;;;;;5.50;3.57;;;;;;;;;;5158332;27;20203;-92
2021/12/17 12:02:54;;;;;;;4.87;3.80;;;;;;;;;;5162215;27;20244;-91
2021/12/17 12:05:35;;;;;;;5.03;4.13;;;;;;;;;;5136272;27;20199;-91
2021/12/17 12:08:21;;;;;;;5.37;4.13;;;;;;;;;;5136080;27;20569;-91
2021/12/17 12:11:03;;;;;;;4.50;3.70;;;;;;;;;;5145708;27;20219;-91
2021/12/17 12:13:38;;;;;;;3.53;3.20;;;;;;;;;;5161371;27;20198;-92
2021/12/17 12:16:07;;;;;;;4.57;3.23;;;;;;;;;;5162804;27;20209;-93
2021/12/17 12:18:42;;;;;;;5.53;3.60;;;;;;;;;;5155994;27;20203;-90
2021/12/17 12:21:10;;;;;;;3.30;3.00;;;;;;;;;;5161258;27;20230;-91
2021/12/17 12:23:41;;;;;;;3.70;3.00;;;;;;;;;;5155909;27;20215;-91
2021/12/17 12:26:13;;;;;;;5.20;3.77;;;;;;;;;;5154739;27;20198;-92
2021/12/17 12:28:48;;;;;;;3.67;3.00;;;;;;;;;;5155357;27;20222;-91
2021/12/17 12:31:37;;;;;;;3.77;3.13;;;;;;;;;;5156488;27;20222;-93
2021/12/17 12:34:09;;;;;;;4.33;3.60;;;;;;;;;;5160164;27;20198;-92
2021/12/17 12:36:47;;;;;;;4.00;3.37;;;;;;;;;;5166644;27;20226;-89
2021/12/17 12:39:16;;;;;;;6.00;3.73;;;;;;;;;;5164670;27;20306;-92
2021/12/17 12:41:45;;;;;;;4.00;3.47;;;;;;;;;;5165909;27;20227;-90
2021/12/17 12:44:13;;;;;;;3.83;3.43;;;;;;;;;;5166804;27;20198;-92
2021/12/17 12:46:51;;;;;;;4.93;3.97;;;;;;;;;;5157228;27;20207;-93
2021/12/17 12:49:49;;;;;;;4.60;3.77;;;;;;;;;;5160666;27;20210;-93
2021/12/17 12:52:17;;;;;;;4.30;3.13;;;;;;;;;;5081180;28;20312;-92
2021/12/17 12:54:49;;;;;;;3.40;2.80;;;;;;;;;;5144943;27;20195;-90
2021/12/17 12:57:24;;;;;;;4.20;3.67;;;;;;;;;;5156710;27;20246;-92
2021/12/17 12:59:53;;;;;;;5.67;4.33;;;;;;;;;;5160910;27;20213;-92
2021/12/17 13:02:25;;;;;;;5.60;3.50;;;;;;;;;;5165366;27;20271;-91
2021/12/17 13:04:53;;;;;;;4.60;3.67;;;;;;;;;;5155768;27;20195;-90
2021/12/17 13:07:38;;;;;;;5.10;3.80;;;;;;;;;;5153915;27;20198;-91
2021/12/17 13:10:10;;;;;;;4.60;3.83;;;;;;;;;;5160056;27;20226;-90
2021/12/17 13:12:38;;;;;;;4.87;3.93;;;;;;;;;;5164767;27;20210;-92
2021/12/17 13:15:17;;;;;;;4.50;3.80;;;;;;;;;;5158121;27;20230;-91
2021/12/17 13:20:56;;;;;;;7.20;4.13;;;;;;;;;;5164443;27;20263;-93
2021/12/17 13:23:23;;;;;;;5.00;4.10;;;;;;;;;;5156514;27;20221;-92
2021/12/17 13:26:08;;;;;;;4.97;3.83;;;;;;;;;;5153819;27;20195;-93
2021/12/17 13:28:52;;;;;;;4.43;3.50;;;;;;;;;;5157423;27;20199;-90
2021/12/17 13:31:36;;;;;;;6.13;4.20;;;;;;;;;;5155086;27;20708;-92
2021/12/17 13:34:08;;;;;;;3.87;3.47;;;;;;;;;;5155215;27;20278;-91
2021/12/17 13:36:36;;;;;;;4.30;3.70;;;;;;;;;;5154890;27;20266;-91
2021/12/17 13:39:03;;;;;;;4.23;3.47;;;;;;;;;;5154976;27;20218;-90
2021/12/17 13:41:36;;;;;;;4.10;3.60;;;;;;;;;;5154453;27;20611;-91
2021/12/17 13:44:03;;;;;;;4.07;3.50;;;;;;;;;;5143648;27;20648;-90
2021/12/17 13:46:31;;;;;;;4.70;3.77;;;;;;;;;;5133907;27;20199;-91
2021/12/17 13:48:58;;;;;;;4.93;3.63;;;;;;;;;;5134213;27;20207;-89
2021/12/17 13:51:27;;;;;;;5.40;4.10;;;;;;;;;;5139467;27;20222;-89
2021/12/17 13:53:57;;;;;;;7.50;4.07;;;;;;;;;;5154237;27;20215;-89
2021/12/17 13:56:24;;;;;;;3.43;2.90;;;;;;;;;;5151892;27;20206;-93
2021/12/17 13:58:52;;;;;;;4.37;3.87;;;;;;;;;;5146983;27;20211;-91
2021/12/17 14:01:23;;;;;;;5.07;4.20;;;;;;;;;;5151190;27;20231;-91
2021/12/17 14:03:50;;;;;;;5.83;3.77;;;;;;;;;;5140567;27;20275;-91
2021/12/17 14:06:21;;;;;;;6.07;3.80;;;;;;;;;;5150934;27;20210;-89
2021/12/17 14:08:51;;;;;;;4.63;4.00;;;;;;;;;;5147739;27;20555;-91
2021/12/17 14:11:23;;;;;;;4.23;3.80;;;;;;;;;;5162696;22;20317;-90
2021/12/17 14:13:50;;;;;;;5.87;3.43;;;;;;;;;;5089578;28;20205;-90
2021/12/17 14:16:27;;;;;;;5.53;3.53;;;;;;;;;;5090177;28;20242;-91
2021/12/17 14:18:57;;;;;;;4.20;3.80;;;;;;;;;;5077154;28;20205;-91
2021/12/17 14:21:28;;;;;;;4.03;3.63;;;;;;;;;;5078120;28;20321;-91
2021/12/17 14:23:57;;;;;;;4.27;3.70;;;;;;;;;;5070251;28;20209;-90
2021/12/17 14:26:28;;;;;;;4.13;3.60;;;;;;;;;;5064546;28;20197;-90
2021/12/17 14:28:56;;;;;;;4.70;3.70;;;;;;;;;;5063939;28;20210;-91
2021/12/17 14:31:25;;;;;;;5.23;4.00;;;;;;;;;;5072075;28;20233;-91
2021/12/17 14:33:53;;;;;;;5.40;4.03;;;;;;;;;;5068573;28;20217;-91
2021/12/17 14:36:22;;;;;;;5.20;4.23;;;;;;;;;;5071492;28;20212;-91
2021/12/17 14:38:54;;;;;;;5.50;3.83;;;;;;;;;;5072028;28;20193;-91
2021/12/17 14:41:28;;;;;;;7.40;3.87;;;;;;;;;;5064650;28;20222;-90
2021/12/17 14:44:00;;;;;;;4.73;3.70;;;;;;;;;;5062110;28;20217;-91
2021/12/17 14:46:30;;;;;;;4.77;3.93;;;;;;;;;;5066932;28;20209;-90
2021/12/17 14:49:16;;;;;;;3.93;3.47;;;;;;;;;;5063942;28;20201;-91
2021/12/17 15:03:01;;;;;;;4.93;3.50;;;;;;;;;;5029750;28;20970;-90
2021/12/17 15:05:29;;;;;;;5.20;3.67;;;;;;;;;;5031167;28;20208;-91
2021/12/17 15:07:57;;;;;;;4.80;3.80;;;;;;;;;;5047852;28;20209;-91
2021/12/17 15:10:26;;;;;;;4.67;3.90;;;;;;;;;;5071692;28;20202;-91
2021/12/17 15:12:57;;;;;;;5.20;3.97;;;;;;;;;;5069057;28;20291;-91
2021/12/17 15:15:25;;;;;;;5.40;4.17;;;;;;;;;;5066418;28;20216;-91
2021/12/17 15:17:53;;;;;;;7.73;3.73;;;;;;;;;;5071219;28;20252;-91
2021/12/17 15:20:21;;;;;;;4.73;3.70;;;;;;;;;;5071667;28;20239;-91
2021/12/17 15:22:49;;;;;;;5.93;4.40;;;;;;;;;;5064042;28;20206;-91
2021/12/17 15:25:18;;;;;;;9.57;4.40;;;;;;;;;;5071749;28;20598;-91
2021/12/17 15:27:45;;;;;;;5.10;3.83;;;;;;;;;;5071551;28;20642;-91
2021/12/17 15:30:16;;;;;;;7.37;4.60;;;;;;;;;;5071750;28;20205;-91
2021/12/17 15:32:44;;;;;;;7.53;5.47;;;;;;;;;;5059202;28;20340;-91
2021/12/17 15:35:12;;;;;;;6.40;4.30;;;;;;;;;;5068468;28;20202;-91
2021/12/17 15:37:39;;;;;;;8.80;5.87;;;;;;;;;;5071759;28;20287;-91
2021/12/17 15:40:07;;;;;;;6.37;4.57;;;;;;;;;;5074782;28;20751;-91
2021/12/17 15:42:39;;;;;;;11.03;6.60;;;;;;;;;;5069361;28;20275;-91
2021/12/17 15:45:11;;;;;;;9.23;6.17;;;;;;;;;;5070389;28;20209;-90
2021/12/17 15:47:40;;;;;;;8.73;5.73;;;;;;;;;;5076255;28;20621;-91
2021/12/17 15:50:08;;;;;;;7.10;5.50;;;;;;;;;;5076696;28;20704;-90
2021/12/17 15:52:36;;;;;;;12.87;7.50;;;;;;;;;;5076045;28;20566;-90
2021/12/17 15:55:05;;;;;;;10.83;6.87;;;;;;;;;;5075829;28;20213;-90
2021/12/17 15:57:32;;;;;;;9.20;7.10;;;;;;;;;;5075004;28;20225;-91
2021/12/17 15:59:59;;;;;;;7.73;5.83;;;;;;;;;;5083716;28;20204;-90
2021/12/17 16:02:27;;;;;;;7.57;5.27;;;;;;;;;;5082240;28;20229;-90
2021/12/17 16:04:56;;;;;;;6.30;5.37;;;;;;;;;;5076677;28;20205;-90
2021/12/17 16:07:23;;;;;;;10.10;6.03;;;;;;;;;;5076163;28;20298;-90
2021/12/17 16:10:46;;;;;;;7.80;6.03;;;;;;;;;;5076721;28;20205;-90
2021/12/17 16:18:43;;;;;;;6.23;4.90;;;;;;;;;;5058027;28;20213;-90
2021/12/17 16:21:10;;;;;;;9.10;5.57;;;;;;;;;;5075823;28;20734;-90
2021/12/17 16:23:39;;;;;;;9.03;5.37;;;;;;;;;;5073193;28;20201;-90
2021/12/17 16:26:07;;;;;;;8.90;5.40;;;;;;;;;;5075772;28;20655;-90
2021/12/17 16:28:35;;;;;;;9.77;5.10;;;;;;;;;;5075466;28;20220;-91
2021/12/17 16:31:08;;;;;;;9.57;6.93;;;;;;;;;;5075773;28;20262;-89
2021/12/17 16:33:36;;;;;;;9.87;6.73;;;;;;;;;;5075123;28;20259;-90
2021/12/17 16:36:03;;;;;;;13.33;8.93;;;;;;;;;;5075202;28;20205;-90
2021/12/17 16:38:32;;;;;;;14.73;8.83;;;;;;;;;;5075082;28;20240;-91
2021/12/17 16:41:00;;;;;;;14.17;9.10;;;;;;;;;;5074594;28;20233;-90
2021/12/17 16:43:28;;;;;;;11.27;7.80;;;;;;;;;;5075017;28;20198;-90
2021/12/17 16:46:12;;;;;;;12.47;8.73;;;;;;;;;;5075506;28;20255;-90
2021/12/17 16:48:40;;;;;;;13.10;8.27;;;;;;;;;;5074908;28;20202;-90
2021/12/17 16:51:08;;;;;;;8.10;6.37;;;;;;;;;;5059389;28;20221;-90
2021/12/17 16:53:37;;;;;;;9.20;6.17;;;;;;;;;;5075117;28;20251;-90
2021/12/17 16:56:04;;;;;;;8.73;6.27;;;;;;;;;;5075213;28;20255;-90
2021/12/17 16:58:32;;;;;;;7.43;5.70;;;;;;;;;;5055703;28;20283;-90
2021/12/17 17:00:59;;;;;;;10.87;5.67;;;;;;;;;;5069069;28;20276;-90
2021/12/17 17:03:27;;;;;;;12.70;6.93;;;;;;;;;;5073296;28;20205;-90
2021/12/17 17:05:55;;;;;;;8.63;6.00;;;;;;;;;;5074101;28;20291;-90
2021/12/17 17:08:23;;;;;;;13.60;5.80;;;;;;;;;;5074439;28;20217;-90
2021/12/17 17:10:53;;;;;;;8.23;6.07;;;;;;;;;;5074495;28;20573;-90
2021/12/17 17:13:26;;;;;;;6.90;5.70;;;;;;;;;;5073086;28;20208;-90
2021/12/17 17:15:56;;;;;;;8.97;6.23;;;;;;;;;;5074319;28;20251;-90
2021/12/17 17:18:24;;;;;;;9.20;6.80;;;;;;;;;;5074316;28;20240;-90
2021/12/17 17:20:51;;;;;;;11.27;7.23;;;;;;;;;;5068442;28;20257;-90
2021/12/17 17:23:18;;;;;;;11.63;7.03;;;;;;;;;;5074627;28;20247;-90
2021/12/17 17:25:46;;;;;;;10.20;7.83;;;;;;;;;;5074564;28;20606;-91
2021/12/17 17:28:16;;;;;;;11.53;7.53;;;;;;;;;;5074744;28;20247;-90
2021/12/17 17:30:48;;;;;;;8.57;6.80;;;;;;;;;;5073841;28;20296;-90
2021/12/17 17:33:16;;;;;;;11.57;7.27;;;;;;;;;;5070687;28;20198;-90
2021/12/17 17:35:43;;;;;;;9.20;6.77;;;;;;;;;;5073920;28;20201;-90
2021/12/17 17:38:11;;;;;;;10.23;6.77;;;;;;;;;;5069662;28;20280;-90
2021/12/17 17:40:38;;;;;;;9.73;7.10;;;;;;;;;;5069484;28;20283;-90
2021/12/17 17:43:06;;;;;;;10.97;7.57;;;;;;;;;;5074914;28;20201;-90